Isle of Islay, United Kingdom
Current Conditions -  °F | °C
As of 2:50 AM on Saturday 22 Nov 2014 (Local Time) from EGPI Reporting Station
Moderate Rain Moderate Rain  
Wind Chill: 50°   Ceiling: 800
Heat Index: 50°   Visibility: 2.1mi
Dew Point: 50°   Wind: 23mph
Humidity: 100%   Direction: 120°ESE
Pressure: 29.56"   Gusts: NA
Location:  55.63°N, 6.2°W
Report Text: EGPI 220250Z AUTO 12020KT 090V160 3400 RA BKN008/// 10/10 Q1001
Loading
Personal Weather Stations






























Interactive Weather Map New forecast layout! Learn more

10-Day Weather Forecast

Advertisements
Track Severe Weather on mobile